sensor_id;sensor_type;location;lat;lon;timestamp;pressure;altitude;pressure_sealevel;temperature;humidity
61697;BME280;47610;52.252;20.922;2023-05-21T00:01:10;101082.77;;;16.24;100.00
61697;BME280;47610;52.252;20.922;2023-05-21T00:06:14;101077.36;;;16.17;100.00
61697;BME280;47610;52.252;20.922;2023-05-21T00:11:17;101077.38;;;16.11;100.00
61697;BME280;47610;52.252;20.922;2023-05-21T00:16:20;101076.86;;;16.03;100.00
61697;BME280;47610;52.252;20.922;2023-05-21T00:21:23;101077.61;;;15.95;100.00
61697;BME280;47610;52.252;20.922;2023-05-21T00:26:27;101073.76;;;15.87;100.00
61697;BME280;47610;52.252;20.922;2023-05-21T00:31:30;101074.73;;;15.78;100.00
61697;BME280;47610;52.252;20.922;2023-05-21T00:36:33;101076.58;;;15.71;100.00
61697;BME280;47610;52.252;20.922;2023-05-21T00:41:36;101083.46;;;15.64;100.00
61697;BME280;47610;52.252;20.922;2023-05-21T00:46:40;101080.78;;;15.59;100.00
61697;BME280;47610;52.252;20.922;2023-05-21T00:51:43;101081.80;;;15.51;100.00
61697;BME280;47610;52.252;20.922;2023-05-21T00:56:46;101084.08;;;15.43;100.00
61697;BME280;47610;52.252;20.922;2023-05-21T01:01:50;101080.98;;;15.36;100.00
61697;BME280;47610;52.252;20.922;2023-05-21T01:06:54;101087.16;;;15.28;100.00
61697;BME280;47610;52.252;20.922;2023-05-21T01:11:57;101082.55;;;15.22;100.00
61697;BME280;47610;52.252;20.922;2023-05-21T01:17:02;101079.38;;;15.17;100.00
61697;BME280;47610;52.252;20.922;2023-05-21T01:22:08;101082.19;;;15.12;100.00
61697;BME280;47610;52.252;20.922;2023-05-21T01:27:11;101077.05;;;15.10;100.00
61697;BME280;47610;52.252;20.922;2023-05-21T01:32:19;101075.80;;;15.06;100.00
61697;BME280;47610;52.252;20.922;2023-05-21T01:37:32;101079.03;;;15.05;100.00
61697;BME280;47610;52.252;20.922;2023-05-21T01:42:38;101080.59;;;15.03;100.00
61697;BME280;47610;52.252;20.922;2023-05-21T01:47:45;101072.96;;;15.01;100.00
61697;BME280;47610;52.252;20.922;2023-05-21T01:52:50;101075.81;;;14.97;100.00
61697;BME280;47610;52.252;20.922;2023-05-21T01:57:54;101072.89;;;14.95;100.00
61697;BME280;47610;52.252;20.922;2023-05-21T02:02:57;101077.29;;;14.91;100.00
61697;BME280;47610;52.252;20.922;2023-05-21T02:08:01;101076.90;;;14.85;100.00
61697;BME280;47610;52.252;20.922;2023-05-21T02:13:04;101076.05;;;14.79;100.00
61697;BME280;47610;52.252;20.922;2023-05-21T02:18:07;101068.92;;;14.74;100.00
61697;BME280;47610;52.252;20.922;2023-05-21T02:23:10;101067.73;;;14.69;100.00
61697;BME280;47610;52.252;20.922;2023-05-21T02:28:13;101064.42;;;14.66;100.00
61697;BME280;47610;52.252;20.922;2023-05-21T02:33:17;101065.32;;;14.65;100.00
61697;BME280;47610;52.252;20.922;2023-05-21T02:38:20;101063.88;;;14.66;100.00
61697;BME280;47610;52.252;20.922;2023-05-21T02:43:23;101060.92;;;14.68;100.00
61697;BME280;47610;52.252;20.922;2023-05-21T02:48:26;101056.59;;;14.71;100.00
61697;BME280;47610;52.252;20.922;2023-05-21T02:53:30;101062.59;;;14.77;100.00
61697;BME280;47610;52.252;20.922;2023-05-21T02:58:33;101065.05;;;14.80;100.00
61697;BME280;47610;52.252;20.922;2023-05-21T03:03:36;101062.16;;;14.82;100.00
61697;BME280;47610;52.252;20.922;2023-05-21T03:08:39;101057.65;;;14.86;100.00
61697;BME280;47610;52.252;20.922;2023-05-21T03:13:42;101057.19;;;15.04;100.00
61697;BME280;47610;52.252;20.922;2023-05-21T03:18:46;101052.44;;;15.34;100.00
61697;BME280;47610;52.252;20.922;2023-05-21T03:23:49;101049.02;;;15.94;100.00
61697;BME280;47610;52.252;20.922;2023-05-21T03:28:52;101045.39;;;16.78;100.00
61697;BME280;47610;52.252;20.922;2023-05-21T03:33:56;101046.63;;;17.81;100.00
61697;BME280;47610;52.252;20.922;2023-05-21T03:38:59;101051.69;;;18.74;100.00
61697;BME280;47610;52.252;20.922;2023-05-21T03:44:02;101051.74;;;19.71;99.72
61697;BME280;47610;52.252;20.922;2023-05-21T03:49:05;101048.20;;;20.59;94.66
61697;BME280;47610;52.252;20.922;2023-05-21T03:54:08;101050.02;;;21.50;88.54
61697;BME280;47610;52.252;20.922;2023-05-21T03:59:12;101058.77;;;22.40;81.21
61697;BME280;47610;52.252;20.922;2023-05-21T04:04:15;101056.50;;;23.16;75.22
61697;BME280;47610;52.252;20.922;2023-05-21T04:09:18;101057.64;;;24.17;70.32
61697;BME280;47610;52.252;20.922;2023-05-21T04:14:22;101059.33;;;25.30;64.25
61697;BME280;47610;52.252;20.922;2023-05-21T04:19:25;101067.14;;;26.47;57.54
61697;BME280;47610;52.252;20.922;2023-05-21T04:24:28;101066.21;;;27.45;50.58
61697;BME280;47610;52.252;20.922;2023-05-21T04:29:32;101067.95;;;28.23;46.26
61697;BME280;47610;52.252;20.922;2023-05-21T04:34:35;101057.33;;;29.06;41.59
61697;BME280;47610;52.252;20.922;2023-05-21T04:39:38;101052.64;;;30.15;38.38
61697;BME280;47610;52.252;20.922;2023-05-21T04:44:41;101051.88;;;31.14;34.72
61697;BME280;47610;52.252;20.922;2023-05-21T04:49:44;101048.48;;;32.05;32.75
61697;BME280;47610;52.252;20.922;2023-05-21T04:54:48;101048.41;;;32.97;30.09
61697;BME280;47610;52.252;20.922;2023-05-21T04:59:51;101044.86;;;33.91;28.53
61697;BME280;47610;52.252;20.922;2023-05-21T05:04:52;101050.81;;;34.98;26.64
61697;BME280;47610;52.252;20.922;2023-05-21T05:09:56;101050.08;;;35.32;25.17
61697;BME280;47610;52.252;20.922;2023-05-21T05:14:57;101051.27;;;34.29;25.18
61697;BME280;47610;52.252;20.922;2023-05-21T05:20:00;101046.14;;;32.09;26.75
61697;BME280;47610;52.252;20.922;2023-05-21T05:25:04;101037.17;;;29.37;29.78
61697;BME280;47610;52.252;20.922;2023-05-21T05:30:09;101035.77;;;27.69;32.29
61697;BME280;47610;52.252;20.922;2023-05-21T05:35:13;101029.13;;;26.50;34.75
61697;BME280;47610;52.252;20.922;2023-05-21T05:40:16;101030.72;;;25.49;38.32
61697;BME280;47610;52.252;20.922;2023-05-21T05:45:20;101023.83;;;25.32;40.07
61697;BME280;47610;52.252;20.922;2023-05-21T05:50:23;101018.86;;;24.72;41.93
61697;BME280;47610;52.252;20.922;2023-05-21T05:55:26;101019.67;;;24.06;44.60
61697;BME280;47610;52.252;20.922;2023-05-21T06:00:29;101016.33;;;23.66;47.72
61697;BME280;47610;52.252;20.922;2023-05-21T06:05:32;101010.31;;;23.97;47.92
61697;BME280;47610;52.252;20.922;2023-05-21T06:10:36;101012.55;;;23.48;49.67
61697;BME280;47610;52.252;20.922;2023-05-21T06:15:39;101008.66;;;23.15;52.74
61697;BME280;47610;52.252;20.922;2023-05-21T06:20:42;101013.71;;;23.58;52.80
61697;BME280;47610;52.252;20.922;2023-05-21T06:25:45;101015.35;;;24.36;50.37
61697;BME280;47610;52.252;20.922;2023-05-21T06:30:49;101017.77;;;24.24;49.24
61697;BME280;47610;52.252;20.922;2023-05-21T06:35:52;101017.95;;;23.60;52.48
61697;BME280;47610;52.252;20.922;2023-05-21T06:40:55;101015.42;;;23.12;53.32
61697;BME280;47610;52.252;20.922;2023-05-21T06:45:58;101011.81;;;22.69;56.09
61697;BME280;47610;52.252;20.922;2023-05-21T06:51:02;101006.16;;;22.43;58.52
61697;BME280;47610;52.252;20.922;2023-05-21T06:56:05;101003.70;;;22.58;58.43
61697;BME280;47610;52.252;20.922;2023-05-21T07:01:09;100998.16;;;23.14;56.10
61697;BME280;47610;52.252;20.922;2023-05-21T07:06:12;100989.73;;;23.34;56.62
61697;BME280;47610;52.252;20.922;2023-05-21T07:11:15;100987.72;;;23.57;55.90
61697;BME280;47610;52.252;20.922;2023-05-21T07:16:18;100988.86;;;24.37;52.49
61697;BME280;47610;52.252;20.922;2023-05-21T07:21:22;100988.95;;;24.28;51.03
61697;BME280;47610;52.252;20.922;2023-05-21T07:26:24;100982.80;;;23.89;53.76
61697;BME280;47610;52.252;20.922;2023-05-21T07:31:27;100982.27;;;23.68;54.63
61697;BME280;47610;52.252;20.922;2023-05-21T07:36:30;100986.09;;;23.46;53.47
61697;BME280;47610;52.252;20.922;2023-05-21T07:41:34;100981.97;;;23.37;53.91
61697;BME280;47610;52.252;20.922;2023-05-21T07:46:37;100976.18;;;23.43;56.74
61697;BME280;47610;52.252;20.922;2023-05-21T07:51:40;100972.38;;;23.61;54.35
61697;BME280;47610;52.252;20.922;2023-05-21T07:56:43;100974.48;;;24.10;54.73
61697;BME280;47610;52.252;20.922;2023-05-21T08:01:46;100969.33;;;24.17;53.84
61697;BME280;47610;52.252;20.922;2023-05-21T08:06:50;100977.21;;;24.59;49.96
61697;BME280;47610;52.252;20.922;2023-05-21T08:11:53;100969.84;;;24.85;48.78
61697;BME280;47610;52.252;20.922;2023-05-21T08:16:56;100962.79;;;24.77;48.11
61697;BME280;47610;52.252;20.922;2023-05-21T08:21:59;100960.41;;;25.30;46.83
61697;BME280;47610;52.252;20.922;2023-05-21T08:27:03;100961.50;;;25.44;46.59
61697;BME280;47610;52.252;20.922;2023-05-21T08:32:07;100957.27;;;26.17;44.02
61697;BME280;47610;52.252;20.922;2023-05-21T08:37:10;100956.38;;;29.01;35.77
61697;BME280;47610;52.252;20.922;2023-05-21T08:47:40;100963.42;;;32.57;25.01
61697;BME280;47610;52.252;20.922;2023-05-21T08:52:43;100966.90;;;33.93;22.50
61697;BME280;47610;52.252;20.922;2023-05-21T08:57:47;100967.88;;;34.65;21.16
61697;BME280;47610;52.252;20.922;2023-05-21T09:02:50;100969.44;;;35.46;20.78
61697;BME280;47610;52.252;20.922;2023-05-21T09:08:00;100960.65;;;35.71;19.33
61697;BME280;47610;52.252;20.922;2023-05-21T09:13:05;100968.22;;;35.73;19.80
61697;BME280;47610;52.252;20.922;2023-05-21T09:18:08;100967.02;;;35.80;19.89
61697;BME280;47610;52.252;20.922;2023-05-21T09:23:15;100962.86;;;35.12;19.80
61697;BME280;47610;52.252;20.922;2023-05-21T09:28:19;100950.55;;;34.66;19.74
61697;BME280;47610;52.252;20.922;2023-05-21T09:33:26;100943.95;;;34.23;20.38
61697;BME280;47610;52.252;20.922;2023-05-21T09:38:29;100946.70;;;34.25;20.07
61697;BME280;47610;52.252;20.922;2023-05-21T09:43:36;100943.70;;;34.16;20.06
61697;BME280;47610;52.252;20.922;2023-05-21T09:48:40;100943.19;;;33.92;19.67
61697;BME280;47610;52.252;20.922;2023-05-21T09:54:00;100940.79;;;33.78;20.20
61697;BME280;47610;52.252;20.922;2023-05-21T09:59:04;100932.52;;;32.68;21.67
61697;BME280;47610;52.252;20.922;2023-05-21T10:04:08;100933.87;;;31.43;22.62
61697;BME280;47610;52.252;20.922;2023-05-21T10:09:11;100928.36;;;30.29;23.46
61697;BME280;47610;52.252;20.922;2023-05-21T10:14:19;100919.89;;;29.20;24.66
61697;BME280;47610;52.252;20.922;2023-05-21T10:19:23;100914.70;;;28.49;26.55
61697;BME280;47610;52.252;20.922;2023-05-21T10:24:26;100917.20;;;27.85;27.67
61697;BME280;47610;52.252;20.922;2023-05-21T10:29:31;100909.52;;;27.22;29.15
61697;BME280;47610;52.252;20.922;2023-05-21T10:34:37;100907.06;;;26.75;29.39
61697;BME280;47610;52.252;20.922;2023-05-21T10:39:40;100906.20;;;26.33;30.28
61697;BME280;47610;52.252;20.922;2023-05-21T10:44:55;100897.48;;;26.04;32.81
61697;BME280;47610;52.252;20.922;2023-05-21T10:50:18;100895.29;;;25.76;32.13
61697;BME280;47610;52.252;20.922;2023-05-21T10:55:41;100890.05;;;25.46;32.65
61697;BME280;47610;52.252;20.922;2023-05-21T11:00:49;100883.48;;;25.31;34.09
61697;BME280;47610;52.252;20.922;2023-05-21T11:05:55;100889.16;;;25.27;34.93
61697;BME280;47610;52.252;20.922;2023-05-21T11:10:58;100882.96;;;25.14;34.53
61697;BME280;47610;52.252;20.922;2023-05-21T11:16:15;100869.18;;;25.05;35.34
61697;BME280;47610;52.252;20.922;2023-05-21T11:21:22;100869.47;;;24.91;34.52
61697;BME280;47610;52.252;20.922;2023-05-21T11:26:27;100871.44;;;24.83;35.14
61697;BME280;47610;52.252;20.922;2023-05-21T11:31:31;100865.84;;;24.67;34.81
61697;BME280;47610;52.252;20.922;2023-05-21T11:36:37;100861.27;;;24.51;35.92
61697;BME280;47610;52.252;20.922;2023-05-21T11:41:55;100857.52;;;24.46;37.30
61697;BME280;47610;52.252;20.922;2023-05-21T11:46:59;100862.89;;;24.54;36.15
61697;BME280;47610;52.252;20.922;2023-05-21T11:52:03;100858.63;;;24.46;35.27
61697;BME280;47610;52.252;20.922;2023-05-21T11:57:07;100858.15;;;24.27;35.67
61697;BME280;47610;52.252;20.922;2023-05-21T12:02:14;100853.91;;;24.03;35.04
61697;BME280;47610;52.252;20.922;2023-05-21T12:07:19;100853.65;;;23.95;34.99
61697;BME280;47610;52.252;20.922;2023-05-21T12:12:26;100855.38;;;23.88;34.45
61697;BME280;47610;52.252;20.922;2023-05-21T12:17:29;100850.00;;;23.83;35.03
61697;BME280;47610;52.252;20.922;2023-05-21T12:22:33;100854.14;;;23.72;35.41
61697;BME280;47610;52.252;20.922;2023-05-21T12:27:36;100848.02;;;23.63;35.07
61697;BME280;47610;52.252;20.922;2023-05-21T12:32:42;100844.34;;;23.52;34.09
61697;BME280;47610;52.252;20.922;2023-05-21T12:37:46;100839.22;;;23.50;34.90
61697;BME280;47610;52.252;20.922;2023-05-21T12:42:49;100839.99;;;23.49;33.53
61697;BME280;47610;52.252;20.922;2023-05-21T12:47:53;100831.89;;;23.52;34.06
61697;BME280;47610;52.252;20.922;2023-05-21T12:52:56;100832.88;;;23.52;34.96
61697;BME280;47610;52.252;20.922;2023-05-21T12:58:04;100832.48;;;23.50;35.72
61697;BME280;47610;52.252;20.922;2023-05-21T13:03:07;100825.30;;;23.46;34.49
61697;BME280;47610;52.252;20.922;2023-05-21T13:08:10;100823.60;;;23.43;35.39
61697;BME280;47610;52.252;20.922;2023-05-21T13:13:13;100823.81;;;23.45;35.21
61697;BME280;47610;52.252;20.922;2023-05-21T13:18:16;100820.35;;;23.47;36.21
61697;BME280;47610;52.252;20.922;2023-05-21T13:23:20;100811.63;;;23.46;36.43
61697;BME280;47610;52.252;20.922;2023-05-21T13:28:23;100808.77;;;23.41;38.27
61697;BME280;47610;52.252;20.922;2023-05-21T13:33:26;100807.11;;;23.17;38.03
61697;BME280;47610;52.252;20.922;2023-05-21T13:38:29;100810.27;;;22.97;37.89
61697;BME280;47610;52.252;20.922;2023-05-21T13:43:32;100802.80;;;22.93;38.46
61697;BME280;47610;52.252;20.922;2023-05-21T13:48:35;100814.55;;;22.91;37.55
61697;BME280;47610;52.252;20.922;2023-05-21T13:53:39;100803.11;;;22.87;36.27
61697;BME280;47610;52.252;20.922;2023-05-21T13:58:42;100799.98;;;22.83;35.52
61697;BME280;47610;52.252;20.922;2023-05-21T14:03:45;100797.87;;;22.74;35.52
61697;BME280;47610;52.252;20.922;2023-05-21T14:08:48;100793.43;;;22.73;36.05
61697;BME280;47610;52.252;20.922;2023-05-21T14:13:52;100796.30;;;22.71;34.23
61697;BME280;47610;52.252;20.922;2023-05-21T14:18:55;100793.38;;;22.67;33.62
61697;BME280;47610;52.252;20.922;2023-05-21T14:23:59;100791.21;;;22.65;32.56
61697;BME280;47610;52.252;20.922;2023-05-21T14:29:02;100789.08;;;22.64;33.36
61697;BME280;47610;52.252;20.922;2023-05-21T14:34:05;100789.27;;;22.65;34.54
61697;BME280;47610;52.252;20.922;2023-05-21T14:39:09;100787.91;;;22.63;34.80
61697;BME280;47610;52.252;20.922;2023-05-21T14:44:12;100779.58;;;22.58;34.60
61697;BME280;47610;52.252;20.922;2023-05-21T14:49:15;100771.91;;;22.54;35.12
61697;BME280;47610;52.252;20.922;2023-05-21T14:54:18;100771.35;;;22.52;35.24
61697;BME280;47610;52.252;20.922;2023-05-21T14:59:21;100764.30;;;22.50;35.42
61697;BME280;47610;52.252;20.922;2023-05-21T15:04:25;100765.95;;;22.49;35.40
61697;BME280;47610;52.252;20.922;2023-05-21T15:09:28;100764.59;;;22.47;35.25
61697;BME280;47610;52.252;20.922;2023-05-21T15:14:31;100756.40;;;22.42;34.23
61697;BME280;47610;52.252;20.922;2023-05-21T15:19:34;100756.63;;;22.39;33.97
61697;BME280;47610;52.252;20.922;2023-05-21T15:24:37;100749.83;;;22.37;34.43
61697;BME280;47610;52.252;20.922;2023-05-21T15:29:41;100752.76;;;22.36;34.02
61697;BME280;47610;52.252;20.922;2023-05-21T15:34:44;100753.34;;;22.37;33.02
61697;BME280;47610;52.252;20.922;2023-05-21T15:39:48;100758.59;;;22.33;31.92
61697;BME280;47610;52.252;20.922;2023-05-21T15:44:51;100752.60;;;22.27;32.34
61697;BME280;47610;52.252;20.922;2023-05-21T15:49:54;100751.45;;;22.24;33.29
61697;BME280;47610;52.252;20.922;2023-05-21T15:54:57;100752.46;;;22.23;34.06
61697;BME280;47610;52.252;20.922;2023-05-21T16:00:00;100750.20;;;22.23;34.88
61697;BME280;47610;52.252;20.922;2023-05-21T16:05:04;100751.95;;;22.22;35.08
61697;BME280;47610;52.252;20.922;2023-05-21T16:10:09;100752.77;;;22.20;34.54
61697;BME280;47610;52.252;20.922;2023-05-21T16:15:13;100750.14;;;22.17;34.05
61697;BME280;47610;52.252;20.922;2023-05-21T16:20:16;100745.02;;;22.13;34.45
61697;BME280;47610;52.252;20.922;2023-05-21T16:25:19;100739.77;;;22.10;35.23
61697;BME280;47610;52.252;20.922;2023-05-21T16:30:23;100746.33;;;22.05;35.85
61697;BME280;47610;52.252;20.922;2023-05-21T16:35:26;100744.91;;;22.01;36.50
61697;BME280;47610;52.252;20.922;2023-05-21T16:40:29;100745.43;;;21.98;37.15
61697;BME280;47610;52.252;20.922;2023-05-21T16:45:39;100743.23;;;21.93;37.28
61697;BME280;47610;52.252;20.922;2023-05-21T16:50:43;100743.48;;;21.88;38.07
61697;BME280;47610;52.252;20.922;2023-05-21T16:55:46;100739.41;;;21.85;39.46
61697;BME280;47610;52.252;20.922;2023-05-21T17:00:49;100740.90;;;21.81;40.94
61697;BME280;47610;52.252;20.922;2023-05-21T17:05:52;100744.02;;;21.99;42.19
61697;BME280;47610;52.252;20.922;2023-05-21T17:10:56;100746.48;;;22.22;41.96
61697;BME280;47610;52.252;20.922;2023-05-21T17:15:59;100746.02;;;22.25;41.53
61697;BME280;47610;52.252;20.922;2023-05-21T17:21:02;100746.30;;;22.23;40.61
61697;BME280;47610;52.252;20.922;2023-05-21T17:26:06;100747.33;;;22.20;40.26
61697;BME280;47610;52.252;20.922;2023-05-21T17:31:09;100750.17;;;22.13;39.80
61697;BME280;47610;52.252;20.922;2023-05-21T17:36:13;100747.48;;;22.01;39.40
61697;BME280;47610;52.252;20.922;2023-05-21T17:41:16;100743.20;;;22.00;39.73
61697;BME280;47610;52.252;20.922;2023-05-21T17:46:19;100740.92;;;21.95;39.60
61697;BME280;47610;52.252;20.922;2023-05-21T17:51:22;100742.14;;;21.89;39.74
61697;BME280;47610;52.252;20.922;2023-05-21T17:56:25;100737.95;;;21.86;39.90
61697;BME280;47610;52.252;20.922;2023-05-21T18:01:29;100733.13;;;21.73;40.42
61697;BME280;47610;52.252;20.922;2023-05-21T18:06:32;100731.78;;;21.67;40.63
61697;BME280;47610;52.252;20.922;2023-05-21T18:11:35;100736.39;;;21.66;40.71
61697;BME280;47610;52.252;20.922;2023-05-21T18:16:38;100735.70;;;21.64;40.80
61697;BME280;47610;52.252;20.922;2023-05-21T18:21:42;100740.66;;;21.58;41.12
61697;BME280;47610;52.252;20.922;2023-05-21T18:26:45;100736.66;;;21.46;41.72
61697;BME280;47610;52.252;20.922;2023-05-21T18:31:48;100740.55;;;21.38;42.12
61697;BME280;47610;52.252;20.922;2023-05-21T18:36:51;100751.11;;;21.31;43.14
61697;BME280;47610;52.252;20.922;2023-05-21T18:41:55;100751.37;;;21.24;44.06
61697;BME280;47610;52.252;20.922;2023-05-21T18:46:58;100748.80;;;21.21;43.60
61697;BME280;47610;52.252;20.922;2023-05-21T18:52:02;100748.48;;;21.12;43.15
61697;BME280;47610;52.252;20.922;2023-05-21T18:57:06;100756.21;;;20.93;43.48
61697;BME280;47610;52.252;20.922;2023-05-21T19:02:10;100756.42;;;20.75;43.56
61697;BME280;47610;52.252;20.922;2023-05-21T19:07:13;100755.88;;;20.78;44.16
61697;BME280;47610;52.252;20.922;2023-05-21T19:12:16;100763.70;;;20.87;44.29
61697;BME280;47610;52.252;20.922;2023-05-21T19:17:19;100762.17;;;20.75;45.76
61697;BME280;47610;52.252;20.922;2023-05-21T19:22:23;100762.96;;;20.62;47.42
61697;BME280;47610;52.252;20.922;2023-05-21T19:27:26;100763.17;;;20.47;49.39
61697;BME280;47610;52.252;20.922;2023-05-21T19:32:30;100761.53;;;20.33;51.43
61697;BME280;47610;52.252;20.922;2023-05-21T19:37:33;100765.69;;;20.24;53.09
61697;BME280;47610;52.252;20.922;2023-05-21T19:42:36;100763.84;;;20.14;56.37
61697;BME280;47610;52.252;20.922;2023-05-21T19:47:39;100766.52;;;19.98;58.89
61697;BME280;47610;52.252;20.922;2023-05-21T19:52:42;100771.91;;;19.85;60.93
61697;BME280;47610;52.252;20.922;2023-05-21T19:57:46;100763.85;;;19.71;63.51
61697;BME280;47610;52.252;20.922;2023-05-21T20:02:49;100762.07;;;19.52;65.11
61697;BME280;47610;52.252;20.922;2023-05-21T20:07:52;100760.11;;;19.36;67.48
61697;BME280;47610;52.252;20.922;2023-05-21T20:12:55;100755.88;;;19.22;69.93
61697;BME280;47610;52.252;20.922;2023-05-21T20:17:59;100757.17;;;19.17;72.34
61697;BME280;47610;52.252;20.922;2023-05-21T20:23:02;100753.75;;;19.08;73.48
61697;BME280;47610;52.252;20.922;2023-05-21T20:28:05;100755.78;;;18.98;74.22
61697;BME280;47610;52.252;20.922;2023-05-21T20:33:08;100759.82;;;18.91;75.96
61697;BME280;47610;52.252;20.922;2023-05-21T20:38:11;100759.03;;;18.81;77.25
61697;BME280;47610;52.252;20.922;2023-05-21T20:43:15;100761.31;;;18.68;78.69
61697;BME280;47610;52.252;20.922;2023-05-21T20:48:18;100767.02;;;18.60;80.25
61697;BME280;47610;52.252;20.922;2023-05-21T20:53:21;100769.73;;;18.56;81.57
61697;BME280;47610;52.252;20.922;2023-05-21T20:58:24;100765.33;;;18.47;82.71
61697;BME280;47610;52.252;20.922;2023-05-21T21:03:28;100766.55;;;18.37;84.78
61697;BME280;47610;52.252;20.922;2023-05-21T21:08:31;100764.57;;;18.22;85.77
61697;BME280;47610;52.252;20.922;2023-05-21T21:13:34;100760.65;;;18.05;87.44
61697;BME280;47610;52.252;20.922;2023-05-21T21:18:38;100752.23;;;17.93;88.72
61697;BME280;47610;52.252;20.922;2023-05-21T21:23:41;100744.71;;;17.84;90.20
61697;BME280;47610;52.252;20.922;2023-05-21T21:28:44;100744.66;;;17.73;91.73
61697;BME280;47610;52.252;20.922;2023-05-21T21:33:48;100738.23;;;17.63;92.56
61697;BME280;47610;52.252;20.922;2023-05-21T21:38:51;100736.23;;;17.58;92.20
61697;BME280;47610;52.252;20.922;2023-05-21T21:43:54;100737.71;;;17.52;93.97
61697;BME280;47610;52.252;20.922;2023-05-21T21:48:57;100735.79;;;17.45;93.88
61697;BME280;47610;52.252;20.922;2023-05-21T21:54:01;100743.80;;;17.41;94.07
61697;BME280;47610;52.252;20.922;2023-05-21T21:59:04;100741.94;;;17.34;96.48
61697;BME280;47610;52.252;20.922;2023-05-21T22:04:07;100744.58;;;17.26;98.25
61697;BME280;47610;52.252;20.922;2023-05-21T22:09:10;100746.74;;;17.15;99.95
61697;BME280;47610;52.252;20.922;2023-05-21T22:14:13;100741.36;;;17.04;100.00
61697;BME280;47610;52.252;20.922;2023-05-21T22:19:17;100742.48;;;16.99;99.25
61697;BME280;47610;52.252;20.922;2023-05-21T22:24:20;100746.15;;;16.93;99.73
61697;BME280;47610;52.252;20.922;2023-05-21T22:29:23;100746.67;;;16.90;99.83
61697;BME280;47610;52.252;20.922;2023-05-21T22:34:26;100747.14;;;16.86;100.00
61697;BME280;47610;52.252;20.922;2023-05-21T22:39:29;100744.20;;;16.82;100.00
61697;BME280;47610;52.252;20.922;2023-05-21T22:44:32;100745.70;;;16.75;100.00
61697;BME280;47610;52.252;20.922;2023-05-21T22:49:36;100746.52;;;16.71;100.00
61697;BME280;47610;52.252;20.922;2023-05-21T22:54:39;100752.52;;;16.65;100.00
61697;BME280;47610;52.252;20.922;2023-05-21T22:59:42;100748.10;;;16.58;100.00
61697;BME280;47610;52.252;20.922;2023-05-21T23:04:45;100747.54;;;16.52;100.00
61697;BME280;47610;52.252;20.922;2023-05-21T23:09:48;100743.16;;;16.43;100.00
61697;BME280;47610;52.252;20.922;2023-05-21T23:14:52;100741.88;;;16.37;100.00
61697;BME280;47610;52.252;20.922;2023-05-21T23:19:55;100736.88;;;16.30;100.00
61697;BME280;47610;52.252;20.922;2023-05-21T23:24:58;100737.40;;;16.20;100.00
61697;BME280;47610;52.252;20.922;2023-05-21T23:30:01;100736.23;;;16.13;100.00
61697;BME280;47610;52.252;20.922;2023-05-21T23:35:05;100732.66;;;16.09;100.00
61697;BME280;47610;52.252;20.922;2023-05-21T23:40:10;100731.96;;;16.07;100.00
61697;BME280;47610;52.252;20.922;2023-05-21T23:45:14;100735.04;;;16.06;100.00
61697;BME280;47610;52.252;20.922;2023-05-21T23:50:17;100732.90;;;16.04;100.00
61697;BME280;47610;52.252;20.922;2023-05-21T23:55:20;100732.40;;;16.01;100.00
